Terminal Aerodrome Forecast
Issued by NWS Twin Cities, MN

Home | Current Version | Previous Version | Text Only | Print | Product List | Glossary Off
Versions: 1 2 3 4 5 6 7 8 9 10 11 12 13 14 15 16 17 18

000
FTUS43 KMPX 152300
TAFSTC
TAF
KSTC 152336Z 1600/1624 15007KT P6SM OVC090
     FM160600 12014G20KT P6SM VCSH SCT030 OVC060
     FM161100 09018G24KT 4SM -SN OVC025
     FM161400 07017G25KT 2SM -SN OVC012=

USA.gov is the U.S. government's official web portal to all federal, state and local government web resources and services.